Time;durP1;ratioP1;P1;durP2;ratioP2;P2;SDS_P1;SDS_P2;PMS_P1;PMS_P2;Temp;Humidity;BMP_temperature;BMP_pressure;BME280_temperature;BME280_humidity;BME280_pressure;Samples;Min_cycle;Max_cycle;Signal;HPM_P1;HPM_P2
2022/07/31 00:00:19;;;;;;;6.00;2.05;;;;;;;;;;5054025;28;20041;-60
2022/07/31 00:02:46;;;;;;;5.38;2.00;;;;;;;;;;5033415;28;20418;-61
2022/07/31 00:05:12;;;;;;;4.97;1.77;;;;;;;;;;5039403;28;20065;-61
2022/07/31 00:07:39;;;;;;;5.35;1.98;;;;;;;;;;5031905;28;20067;-60
2022/07/31 00:10:06;;;;;;;5.53;1.70;;;;;;;;;;5044535;28;20037;-61
2022/07/31 00:12:34;;;;;;;4.97;2.08;;;;;;;;;;5051827;28;20036;-61
2022/07/31 00:15:01;;;;;;;6.38;2.30;;;;;;;;;;5055584;28;20048;-60
2022/07/31 00:17:27;;;;;;;5.67;1.93;;;;;;;;;;5044258;28;20068;-61
2022/07/31 00:19:54;;;;;;;4.40;1.88;;;;;;;;;;5045303;28;20045;-61
2022/07/31 00:22:21;;;;;;;6.05;1.80;;;;;;;;;;5030256;28;20041;-61
2022/07/31 00:24:47;;;;;;;6.75;1.77;;;;;;;;;;5057056;28;20060;-61
2022/07/31 00:27:14;;;;;;;5.40;2.05;;;;;;;;;;5048077;28;20044;-61
2022/07/31 00:29:41;;;;;;;7.00;2.40;;;;;;;;;;5048545;28;20381;-61
2022/07/31 00:32:10;;;;;;;5.13;1.85;;;;;;;;;;5037914;28;20332;-61
2022/07/31 00:34:36;;;;;;;5.03;1.52;;;;;;;;;;5039989;28;20056;-60
2022/07/31 00:37:03;;;;;;;6.13;2.33;;;;;;;;;;5045290;28;20043;-61
2022/07/31 00:39:31;;;;;;;5.95;2.20;;;;;;;;;;5046935;28;20045;-60
2022/07/31 00:41:58;;;;;;;6.33;2.00;;;;;;;;;;5041097;28;20033;-60
2022/07/31 00:44:24;;;;;;;6.00;2.05;;;;;;;;;;5040519;28;20055;-61
2022/07/31 00:46:52;;;;;;;5.80;2.28;;;;;;;;;;5040101;28;20037;-60
2022/07/31 00:49:19;;;;;;;5.97;2.05;;;;;;;;;;5051991;28;20036;-61
2022/07/31 00:51:45;;;;;;;6.38;2.25;;;;;;;;;;5051882;28;20612;-60
2022/07/31 00:54:12;;;;;;;5.23;2.20;;;;;;;;;;5038186;28;20053;-61
2022/07/31 00:56:38;;;;;;;7.50;2.50;;;;;;;;;;5043637;28;20052;-61
2022/07/31 00:59:05;;;;;;;7.75;2.50;;;;;;;;;;5060567;28;20119;-61
2022/07/31 01:01:32;;;;;;;5.40;2.25;;;;;;;;;;5042083;28;20037;-61
2022/07/31 01:04:00;;;;;;;4.93;2.22;;;;;;;;;;5061193;28;20059;-61
2022/07/31 01:06:26;;;;;;;5.93;2.37;;;;;;;;;;5032898;28;20041;-61
2022/07/31 01:08:52;;;;;;;7.45;2.38;;;;;;;;;;5043569;28;20041;-61
2022/07/31 01:11:24;;;;;;;5.90;2.20;;;;;;;;;;5043890;28;20044;-61
2022/07/31 01:13:52;;;;;;;6.65;2.60;;;;;;;;;;5051782;28;20036;-61
2022/07/31 01:16:18;;;;;;;6.20;2.38;;;;;;;;;;5053116;28;20094;-61
2022/07/31 01:18:46;;;;;;;6.10;2.30;;;;;;;;;;5051371;28;20040;-61
2022/07/31 01:21:17;;;;;;;8.38;2.20;;;;;;;;;;5055395;28;20098;-61
2022/07/31 01:23:52;;;;;;;5.97;2.13;;;;;;;;;;5048247;28;20074;-61
2022/07/31 01:26:24;;;;;;;5.25;2.45;;;;;;;;;;5034236;28;20037;-61
2022/07/31 01:29:00;;;;;;;6.03;2.08;;;;;;;;;;5040070;28;20127;-60
2022/07/31 01:31:30;;;;;;;5.43;1.70;;;;;;;;;;5041894;28;20040;-60
2022/07/31 01:33:59;;;;;;;6.90;2.53;;;;;;;;;;5044578;28;20043;-60
2022/07/31 01:36:27;;;;;;;5.38;2.35;;;;;;;;;;5042679;28;20098;-61
2022/07/31 01:38:55;;;;;;;5.65;2.22;;;;;;;;;;5038056;28;20083;-60
2022/07/31 01:41:24;;;;;;;6.35;2.67;;;;;;;;;;5042999;28;20033;-61
2022/07/31 01:43:53;;;;;;;5.37;2.07;;;;;;;;;;5063277;28;20059;-59
2022/07/31 01:46:22;;;;;;;5.97;1.58;;;;;;;;;;5043343;28;20036;-61
2022/07/31 01:48:48;;;;;;;5.13;2.13;;;;;;;;;;5047774;28;20098;-61
2022/07/31 01:51:15;;;;;;;5.72;1.92;;;;;;;;;;5038654;28;20100;-61
2022/07/31 01:53:43;;;;;;;5.63;1.90;;;;;;;;;;5054373;28;20044;-61
2022/07/31 01:56:10;;;;;;;4.47;1.90;;;;;;;;;;5053938;28;20041;-59
2022/07/31 01:58:38;;;;;;;5.60;2.20;;;;;;;;;;5033092;28;20040;-60
2022/07/31 02:01:07;;;;;;;6.10;1.90;;;;;;;;;;5048492;28;20572;-61
2022/07/31 02:03:36;;;;;;;5.50;1.80;;;;;;;;;;5049317;28;20072;-60
2022/07/31 02:06:03;;;;;;;4.95;2.00;;;;;;;;;;5032686;28;21185;-60
2022/07/31 02:08:30;;;;;;;7.23;2.40;;;;;;;;;;5038582;28;20044;-60
2022/07/31 02:10:57;;;;;;;4.80;1.85;;;;;;;;;;5059100;28;20028;-61
2022/07/31 02:13:24;;;;;;;6.13;2.28;;;;;;;;;;5059878;28;20045;-61
2022/07/31 02:15:51;;;;;;;5.65;2.00;;;;;;;;;;5056962;28;20036;-60
2022/07/31 02:18:18;;;;;;;4.82;1.70;;;;;;;;;;5055402;28;20036;-61
2022/07/31 02:20:48;;;;;;;4.80;1.63;;;;;;;;;;5041071;28;20094;-61
2022/07/31 02:23:15;;;;;;;5.10;1.80;;;;;;;;;;5040846;28;20040;-61
2022/07/31 02:25:43;;;;;;;6.03;1.92;;;;;;;;;;5035422;28;20045;-61
2022/07/31 02:28:11;;;;;;;5.53;2.03;;;;;;;;;;5047218;28;20052;-60
2022/07/31 02:30:39;;;;;;;5.32;1.95;;;;;;;;;;5033665;28;20040;-61
2022/07/31 02:33:07;;;;;;;6.37;2.23;;;;;;;;;;5053516;28;20124;-61
2022/07/31 02:35:34;;;;;;;5.45;2.30;;;;;;;;;;5041552;28;20141;-60
2022/07/31 02:38:02;;;;;;;5.60;2.15;;;;;;;;;;5053562;28;20037;-61
2022/07/31 02:40:29;;;;;;;5.60;2.25;;;;;;;;;;5050843;28;20051;-60
2022/07/31 02:42:55;;;;;;;5.22;2.22;;;;;;;;;;5036078;28;20036;-61
2022/07/31 02:45:23;;;;;;;6.30;2.03;;;;;;;;;;5053124;28;20044;-61
2022/07/31 02:47:49;;;;;;;5.50;1.95;;;;;;;;;;5040678;28;20047;-59
2022/07/31 02:50:21;;;;;;;5.78;2.10;;;;;;;;;;5230766;23;20049;-49
2022/07/31 02:52:53;;;;;;;5.13;2.10;;;;;;;;;;5013372;28;20429;-46
2022/07/31 02:55:22;;;;;;;5.95;2.17;;;;;;;;;;5048829;28;20040;-48
2022/07/31 02:57:50;;;;;;;5.93;2.10;;;;;;;;;;5054915;28;20045;-48
2022/07/31 03:00:21;;;;;;;7.40;2.53;;;;;;;;;;5048247;28;20044;-49
2022/07/31 03:02:48;;;;;;;5.15;2.20;;;;;;;;;;5048804;28;20074;-51
2022/07/31 03:05:15;;;;;;;5.32;2.10;;;;;;;;;;5059313;28;20071;-47
2022/07/31 03:07:42;;;;;;;5.65;2.05;;;;;;;;;;5057698;28;20128;-49
2022/07/31 03:10:09;;;;;;;5.27;2.00;;;;;;;;;;5052298;28;20037;-50
2022/07/31 03:12:38;;;;;;;5.75;1.88;;;;;;;;;;5053102;28;20400;-47
2022/07/31 03:15:06;;;;;;;5.22;2.03;;;;;;;;;;5067529;28;20660;-50
2022/07/31 03:17:33;;;;;;;5.90;1.80;;;;;;;;;;5049256;28;20109;-47
2022/07/31 03:19:59;;;;;;;6.78;1.90;;;;;;;;;;5037878;28;20037;-49
2022/07/31 03:22:26;;;;;;;6.53;2.30;;;;;;;;;;5061307;28;20048;-48
2022/07/31 03:24:52;;;;;;;5.13;2.22;;;;;;;;;;5052392;28;20036;-48
2022/07/31 03:27:19;;;;;;;6.18;2.22;;;;;;;;;;5065623;28;20040;-50
2022/07/31 03:29:47;;;;;;;5.60;2.10;;;;;;;;;;5054067;28;20043;-50
2022/07/31 03:32:14;;;;;;;4.78;1.92;;;;;;;;;;5047214;28;20485;-48
2022/07/31 03:34:40;;;;;;;6.87;1.90;;;;;;;;;;5008360;28;20053;-51
2022/07/31 03:37:07;;;;;;;6.38;2.00;;;;;;;;;;5056478;28;20041;-50
2022/07/31 03:39:33;;;;;;;5.43;2.33;;;;;;;;;;5061773;28;20032;-50
2022/07/31 03:42:01;;;;;;;7.85;2.50;;;;;;;;;;5057556;28;20094;-47
2022/07/31 03:44:27;;;;;;;6.00;2.25;;;;;;;;;;5050270;28;20051;-47
2022/07/31 03:46:55;;;;;;;5.80;2.37;;;;;;;;;;5049423;28;20037;-47
2022/07/31 03:49:23;;;;;;;4.88;2.10;;;;;;;;;;5046482;28;20036;-47
2022/07/31 03:51:50;;;;;;;4.95;2.30;;;;;;;;;;5032657;28;20048;-46
2022/07/31 03:54:16;;;;;;;5.70;2.50;;;;;;;;;;5039018;28;20041;-48
2022/07/31 03:56:44;;;;;;;4.85;2.20;;;;;;;;;;5012894;28;20596;-48
2022/07/31 03:59:10;;;;;;;5.00;2.37;;;;;;;;;;5041592;28;20029;-50
2022/07/31 04:01:37;;;;;;;6.05;2.28;;;;;;;;;;5030191;28;20048;-47
2022/07/31 04:04:05;;;;;;;5.20;2.10;;;;;;;;;;5040333;28;20112;-48
2022/07/31 04:06:32;;;;;;;5.30;2.00;;;;;;;;;;4990425;28;20052;-50
2022/07/31 04:09:00;;;;;;;7.70;2.55;;;;;;;;;;5032354;28;20688;-52
2022/07/31 04:11:26;;;;;;;6.07;2.50;;;;;;;;;;5041892;28;20105;-50
2022/07/31 04:13:53;;;;;;;5.82;2.42;;;;;;;;;;5037489;28;20036;-47
2022/07/31 04:16:19;;;;;;;5.53;2.50;;;;;;;;;;5030159;28;20038;-47
2022/07/31 04:18:46;;;;;;;7.70;2.45;;;;;;;;;;5034385;28;20056;-51
2022/07/31 04:21:14;;;;;;;5.57;2.60;;;;;;;;;;5032870;28;20045;-48
2022/07/31 04:23:40;;;;;;;7.47;2.40;;;;;;;;;;5032824;28;20383;-48
2022/07/31 04:26:07;;;;;;;6.50;2.22;;;;;;;;;;5044250;28;20047;-52
2022/07/31 04:28:33;;;;;;;7.22;2.60;;;;;;;;;;5039767;28;20045;-48
2022/07/31 04:31:00;;;;;;;6.50;3.03;;;;;;;;;;5037011;28;20025;-49
2022/07/31 04:33:27;;;;;;;7.93;3.03;;;;;;;;;;5037635;28;20124;-50
2022/07/31 04:35:53;;;;;;;6.73;2.60;;;;;;;;;;5038137;28;20052;-48
2022/07/31 04:38:21;;;;;;;6.22;2.20;;;;;;;;;;5026558;28;20046;-49
2022/07/31 04:40:48;;;;;;;6.90;2.78;;;;;;;;;;5033091;28;20040;-47
2022/07/31 04:43:15;;;;;;;7.13;2.90;;;;;;;;;;5042715;28;20105;-46
2022/07/31 04:45:42;;;;;;;5.88;2.45;;;;;;;;;;5030475;28;20052;-46
2022/07/31 04:48:10;;;;;;;6.50;2.43;;;;;;;;;;5037696;28;20037;-47
2022/07/31 04:50:37;;;;;;;9.00;2.83;;;;;;;;;;5022157;28;20144;-48
2022/07/31 04:53:03;;;;;;;5.50;2.60;;;;;;;;;;5051362;28;20037;-48
2022/07/31 04:55:31;;;;;;;6.97;2.88;;;;;;;;;;5032837;28;20053;-49
2022/07/31 04:57:58;;;;;;;7.43;3.42;;;;;;;;;;5035284;28;20032;-46
2022/07/31 05:00:25;;;;;;;6.10;2.70;;;;;;;;;;5040787;28;20051;-47
2022/07/31 05:02:52;;;;;;;12.02;2.95;;;;;;;;;;5040285;28;20037;-46
2022/07/31 05:05:18;;;;;;;9.20;3.10;;;;;;;;;;5040520;28;20490;-46
2022/07/31 05:07:45;;;;;;;10.50;3.20;;;;;;;;;;5034746;28;20104;-49
2022/07/31 05:11:21;;;;;;;6.88;2.60;;;;;;;;;;5034066;28;20052;-46
2022/07/31 05:13:00;;;;;;;6.93;3.10;;;;;;;;;;5041283;28;20619;-48
2022/07/31 05:15:26;;;;;;;7.22;3.30;;;;;;;;;;5037363;28;20041;-46
2022/07/31 05:17:53;;;;;;;8.45;3.40;;;;;;;;;;5035190;28;20083;-46
2022/07/31 05:20:19;;;;;;;6.18;2.95;;;;;;;;;;5037076;28;20045;-50
2022/07/31 05:22:46;;;;;;;6.15;2.72;;;;;;;;;;5037922;28;20084;-47
2022/07/31 05:25:13;;;;;;;6.47;2.67;;;;;;;;;;5043513;28;20554;-47
2022/07/31 05:27:39;;;;;;;7.43;2.75;;;;;;;;;;5036514;28;20037;-47
2022/07/31 05:30:08;;;;;;;6.07;2.40;;;;;;;;;;5043952;28;20648;-47
2022/07/31 05:32:35;;;;;;;7.70;2.90;;;;;;;;;;5031002;28;20077;-46
2022/07/31 05:35:01;;;;;;;8.52;3.40;;;;;;;;;;5056897;28;20029;-47
2022/07/31 05:37:28;;;;;;;8.90;3.30;;;;;;;;;;5032001;28;20037;-46
2022/07/31 05:39:54;;;;;;;7.18;3.03;;;;;;;;;;5046702;28;20103;-47
2022/07/31 05:42:21;;;;;;;9.40;3.58;;;;;;;;;;5008528;28;20044;-52
2022/07/31 05:44:47;;;;;;;9.00;3.08;;;;;;;;;;5030482;28;20699;-48
2022/07/31 05:47:15;;;;;;;6.93;3.10;;;;;;;;;;5035497;28;20041;-50
2022/07/31 05:49:42;;;;;;;7.23;3.17;;;;;;;;;;5041880;28;20075;-46
2022/07/31 05:52:08;;;;;;;8.20;3.28;;;;;;;;;;5016180;28;20033;-47
2022/07/31 05:54:35;;;;;;;7.70;2.70;;;;;;;;;;5025329;28;20049;-50
2022/07/31 05:57:01;;;;;;;7.35;3.10;;;;;;;;;;5033776;28;20037;-51
2022/07/31 05:59:28;;;;;;;12.32;3.58;;;;;;;;;;5038085;28;20037;-49
2022/07/31 06:01:54;;;;;;;8.60;3.37;;;;;;;;;;5035384;28;20109;-49
2022/07/31 06:04:23;;;;;;;6.82;3.13;;;;;;;;;;5046406;28;20060;-46
2022/07/31 06:06:49;;;;;;;7.85;3.03;;;;;;;;;;5033205;28;20302;-46
2022/07/31 06:09:16;;;;;;;10.75;3.45;;;;;;;;;;5037635;28;20037;-48
2022/07/31 06:11:42;;;;;;;8.25;3.10;;;;;;;;;;5038630;28;20053;-49
2022/07/31 06:14:09;;;;;;;8.57;3.20;;;;;;;;;;5034214;28;20631;-49
2022/07/31 06:16:36;;;;;;;9.65;3.50;;;;;;;;;;5033785;28;20703;-48
2022/07/31 06:19:02;;;;;;;8.50;2.92;;;;;;;;;;5032976;28;20040;-48
2022/07/31 06:21:30;;;;;;;8.60;3.65;;;;;;;;;;5037652;28;20494;-49
2022/07/31 06:23:57;;;;;;;9.93;3.88;;;;;;;;;;5044119;28;20037;-46
2022/07/31 06:26:24;;;;;;;8.87;3.20;;;;;;;;;;5039114;28;20045;-47
2022/07/31 06:28:50;;;;;;;9.38;3.30;;;;;;;;;;5043790;28;20048;-48
2022/07/31 06:31:17;;;;;;;9.60;3.13;;;;;;;;;;5017190;28;20060;-48
2022/07/31 06:33:44;;;;;;;8.55;3.33;;;;;;;;;;5036015;28;20040;-50
2022/07/31 06:36:10;;;;;;;8.55;3.10;;;;;;;;;;5024711;28;20037;-48
2022/07/31 06:38:38;;;;;;;11.00;3.37;;;;;;;;;;5037545;28;20044;-47
2022/07/31 06:41:04;;;;;;;9.57;3.70;;;;;;;;;;5032940;28;20033;-48
2022/07/31 06:43:31;;;;;;;7.75;2.92;;;;;;;;;;5025649;28;20102;-49
2022/07/31 06:45:57;;;;;;;8.73;3.45;;;;;;;;;;5040139;28;20041;-49
2022/07/31 06:48:24;;;;;;;9.15;3.58;;;;;;;;;;5032375;28;20037;-48
2022/07/31 06:50:51;;;;;;;11.53;3.77;;;;;;;;;;5039290;28;20468;-46
2022/07/31 06:53:17;;;;;;;7.68;3.58;;;;;;;;;;5026236;28;20123;-47
2022/07/31 06:55:45;;;;;;;7.90;3.70;;;;;;;;;;5039920;28;20098;-49
2022/07/31 06:58:11;;;;;;;8.98;3.70;;;;;;;;;;5021767;28;20038;-47
2022/07/31 07:00:38;;;;;;;7.53;3.55;;;;;;;;;;5043454;28;20045;-49
2022/07/31 07:03:06;;;;;;;9.73;4.07;;;;;;;;;;5034629;28;20124;-47
2022/07/31 07:05:32;;;;;;;8.90;3.67;;;;;;;;;;5033668;28;20053;-51
2022/07/31 07:07:58;;;;;;;8.18;3.67;;;;;;;;;;5036890;28;20041;-46
2022/07/31 07:10:25;;;;;;;8.45;3.45;;;;;;;;;;5023577;28;20037;-48
2022/07/31 07:12:53;;;;;;;6.85;2.90;;;;;;;;;;5028780;28;20067;-48
2022/07/31 07:15:20;;;;;;;8.93;3.20;;;;;;;;;;5034221;28;20047;-50
2022/07/31 07:17:50;;;;;;;7.18;3.13;;;;;;;;;;5023100;28;21304;-52
2022/07/31 07:20:17;;;;;;;10.40;3.75;;;;;;;;;;5032402;28;20037;-48
2022/07/31 07:22:43;;;;;;;7.78;3.38;;;;;;;;;;5026578;28;20037;-48
2022/07/31 07:25:11;;;;;;;7.97;3.10;;;;;;;;;;5036341;28;20041;-47
2022/07/31 07:27:37;;;;;;;7.37;2.93;;;;;;;;;;5031397;28;20036;-47
2022/07/31 07:30:06;;;;;;;5.97;2.50;;;;;;;;;;5031655;28;20361;-48
2022/07/31 07:32:33;;;;;;;6.97;2.70;;;;;;;;;;5029286;28;20041;-51
2022/07/31 07:34:59;;;;;;;7.45;2.50;;;;;;;;;;5032096;28;20049;-48
2022/07/31 07:37:26;;;;;;;7.15;2.08;;;;;;;;;;5026585;28;20041;-46
2022/07/31 07:39:52;;;;;;;5.73;2.00;;;;;;;;;;5037390;28;20037;-51
2022/07/31 07:42:20;;;;;;;6.82;1.83;;;;;;;;;;5029491;28;20037;-47
2022/07/31 07:44:46;;;;;;;6.43;2.50;;;;;;;;;;5047445;28;20041;-50
2022/07/31 07:47:14;;;;;;;4.97;1.83;;;;;;;;;;5029522;28;20852;-49
2022/07/31 07:49:40;;;;;;;8.00;1.80;;;;;;;;;;5038974;28;20049;-48
2022/07/31 07:52:07;;;;;;;5.30;2.30;;;;;;;;;;5024537;28;20051;-46
2022/07/31 07:54:35;;;;;;;6.25;2.10;;;;;;;;;;5041682;28;20051;-55
2022/07/31 07:57:01;;;;;;;5.13;2.03;;;;;;;;;;5018316;28;20054;-46
2022/07/31 07:59:28;;;;;;;4.70;1.83;;;;;;;;;;5020553;28;20064;-46
2022/07/31 08:01:55;;;;;;;4.68;1.67;;;;;;;;;;5035335;28;20130;-50
2022/07/31 08:04:25;;;;;;;5.73;2.00;;;;;;;;;;5041340;28;20041;-55
2022/07/31 08:06:53;;;;;;;6.20;1.67;;;;;;;;;;5027490;28;20037;-55
2022/07/31 08:09:21;;;;;;;4.93;1.75;;;;;;;;;;4999466;28;20053;-47
2022/07/31 08:11:48;;;;;;;5.65;1.50;;;;;;;;;;5038142;28;20060;-49
2022/07/31 08:14:15;;;;;;;4.13;1.20;;;;;;;;;;5033470;28;20072;-50
2022/07/31 08:16:41;;;;;;;3.20;0.93;;;;;;;;;;5033811;28;20040;-51
2022/07/31 08:19:08;;;;;;;5.82;1.13;;;;;;;;;;5030471;28;20079;-49
2022/07/31 08:21:36;;;;;;;5.28;1.15;;;;;;;;;;5030060;28;20305;-48
2022/07/31 08:24:03;;;;;;;3.55;0.85;;;;;;;;;;5032466;28;20124;-47
2022/07/31 08:27:22;;;;;;;3.33;0.80;;;;;;;;;;5026355;28;20049;-49
2022/07/31 08:29:16;;;;;;;3.73;0.80;;;;;;;;;;5034242;28;20049;-49
2022/07/31 08:31:43;;;;;;;4.43;1.08;;;;;;;;;;5032690;28;20478;-51
2022/07/31 08:34:10;;;;;;;4.10;1.05;;;;;;;;;;5036483;28;20045;-49
2022/07/31 08:36:38;;;;;;;4.75;0.77;;;;;;;;;;5036628;28;20079;-46
2022/07/31 08:39:04;;;;;;;7.03;0.90;;;;;;;;;;5028346;28;20033;-47
2022/07/31 08:41:32;;;;;;;2.87;0.47;;;;;;;;;;5029219;28;20041;-49
2022/07/31 08:43:59;;;;;;;3.25;0.60;;;;;;;;;;5031824;28;20040;-47
2022/07/31 08:46:26;;;;;;;2.90;0.57;;;;;;;;;;5036673;28;20056;-50
2022/07/31 08:48:55;;;;;;;4.28;0.73;;;;;;;;;;5040552;28;20041;-48
2022/07/31 08:51:22;;;;;;;5.43;0.50;;;;;;;;;;5030893;28;20697;-48
2022/07/31 08:53:51;;;;;;;3.33;0.67;;;;;;;;;;5027517;28;20064;-51
2022/07/31 08:56:18;;;;;;;2.97;0.68;;;;;;;;;;5041801;28;20530;-48
2022/07/31 08:58:45;;;;;;;4.70;0.95;;;;;;;;;;5029640;28;20038;-48
2022/07/31 09:01:12;;;;;;;7.72;0.88;;;;;;;;;;5034431;28;20104;-48
2022/07/31 09:03:39;;;;;;;3.55;0.50;;;;;;;;;;5036812;28;20071;-49
2022/07/31 09:06:06;;;;;;;4.10;0.67;;;;;;;;;;5038852;28;20052;-49
2022/07/31 09:08:32;;;;;;;4.97;0.80;;;;;;;;;;4685964;28;10000144;-50
2022/07/31 09:11:06;;;;;;;5.70;0.90;;;;;;;;;;5036843;28;20071;-49
2022/07/31 09:13:34;;;;;;;4.57;0.60;;;;;;;;;;5034092;28;20108;-49
2022/07/31 09:16:02;;;;;;;3.92;0.85;;;;;;;;;;5029512;28;20044;-48
2022/07/31 09:18:28;;;;;;;5.83;0.70;;;;;;;;;;5032658;28;20045;-48
2022/07/31 09:20:55;;;;;;;7.75;1.38;;;;;;;;;;5034567;28;20049;-48
2022/07/31 09:23:22;;;;;;;6.15;1.20;;;;;;;;;;5030493;28;20128;-51
2022/07/31 09:25:52;;;;;;;3.75;0.93;;;;;;;;;;5030677;28;20045;-50
2022/07/31 09:28:20;;;;;;;4.07;0.88;;;;;;;;;;5037773;28;20059;-48
2022/07/31 09:30:54;;;;;;;3.70;0.70;;;;;;;;;;5028471;28;20063;-47
2022/07/31 09:33:21;;;;;;;5.28;0.93;;;;;;;;;;5039964;28;20553;-50
2022/07/31 09:35:48;;;;;;;6.45;1.00;;;;;;;;;;5033618;28;20473;-49
2022/07/31 09:38:15;;;;;;;4.85;1.20;;;;;;;;;;5023939;28;20311;-52
2022/07/31 09:40:43;;;;;;;4.68;0.70;;;;;;;;;;4678634;28;10000053;-48
2022/07/31 09:43:14;;;;;;;4.20;0.70;;;;;;;;;;5037526;28;20047;-51
2022/07/31 09:45:43;;;;;;;4.38;0.80;;;;;;;;;;5034926;28;20815;-47
2022/07/31 09:48:11;;;;;;;4.20;0.90;;;;;;;;;;5030075;28;20033;-50
2022/07/31 09:50:38;;;;;;;3.85;0.70;;;;;;;;;;5027637;28;20507;-47
2022/07/31 09:53:05;;;;;;;3.47;0.68;;;;;;;;;;5028495;28;20041;-51
2022/07/31 09:55:32;;;;;;;3.87;0.77;;;;;;;;;;5029227;28;20127;-48
2022/07/31 09:58:00;;;;;;;2.55;0.52;;;;;;;;;;5018401;28;20049;-53
2022/07/31 10:00:27;;;;;;;3.15;0.63;;;;;;;;;;5030565;28;20056;-49
2022/07/31 10:02:56;;;;;;;3.58;0.68;;;;;;;;;;5038770;28;20056;-49
2022/07/31 10:05:23;;;;;;;2.88;0.50;;;;;;;;;;5037404;28;20765;-50
2022/07/31 10:07:50;;;;;;;5.10;0.90;;;;;;;;;;5032212;28;20148;-49
2022/07/31 10:10:17;;;;;;;2.50;0.60;;;;;;;;;;5034278;28;20059;-46
2022/07/31 10:12:46;;;;;;;2.95;0.60;;;;;;;;;;5025367;28;20059;-52
2022/07/31 10:15:13;;;;;;;3.08;0.70;;;;;;;;;;5039341;28;20033;-49
2022/07/31 10:17:42;;;;;;;2.67;0.80;;;;;;;;;;5023148;28;20048;-51
2022/07/31 10:20:13;;;;;;;2.53;0.70;;;;;;;;;;5028271;28;20072;-50
2022/07/31 10:22:43;;;;;;;3.35;0.60;;;;;;;;;;5010313;28;20433;-50
2022/07/31 10:25:11;;;;;;;3.78;0.80;;;;;;;;;;5039920;28;20517;-50
2022/07/31 10:27:38;;;;;;;4.55;0.70;;;;;;;;;;5032264;28;20067;-50
2022/07/31 10:30:06;;;;;;;2.80;0.60;;;;;;;;;;5020494;28;20152;-49
2022/07/31 10:32:32;;;;;;;2.63;0.60;;;;;;;;;;5030160;28;20047;-50
2022/07/31 10:34:59;;;;;;;3.15;0.90;;;;;;;;;;5025402;28;20041;-51
2022/07/31 10:37:31;;;;;;;3.20;0.77;;;;;;;;;;5039281;28;20041;-49
2022/07/31 10:40:01;;;;;;;2.45;0.50;;;;;;;;;;5036995;28;20037;-52
2022/07/31 10:42:35;;;;;;;4.10;0.77;;;;;;;;;;5038084;28;20048;-50
2022/07/31 10:45:04;;;;;;;3.43;0.80;;;;;;;;;;5026971;28;20045;-54
2022/07/31 10:47:30;;;;;;;3.90;1.00;;;;;;;;;;5031249;28;20721;-47
2022/07/31 10:49:57;;;;;;;5.13;0.90;;;;;;;;;;5039175;28;20052;-52
2022/07/31 10:52:28;;;;;;;4.18;1.10;;;;;;;;;;5026379;28;20037;-48
2022/07/31 10:54:57;;;;;;;3.92;1.10;;;;;;;;;;5039427;28;20037;-50
2022/07/31 10:57:24;;;;;;;3.40;0.77;;;;;;;;;;5041347;28;20045;-49
2022/07/31 10:59:51;;;;;;;4.18;0.82;;;;;;;;;;5038364;28;20103;-52
2022/07/31 11:02:27;;;;;;;4.32;1.10;;;;;;;;;;5033574;28;20051;-49
2022/07/31 11:04:54;;;;;;;3.92;1.13;;;;;;;;;;5036808;28;20048;-51
2022/07/31 11:07:21;;;;;;;3.40;0.80;;;;;;;;;;5031984;28;20520;-49
2022/07/31 11:09:49;;;;;;;4.17;1.20;;;;;;;;;;5027761;28;20620;-53
2022/07/31 11:12:20;;;;;;;3.90;1.30;;;;;;;;;;5022030;28;20037;-52
2022/07/31 11:14:47;;;;;;;4.00;1.13;;;;;;;;;;5019313;28;20653;-47
2022/07/31 11:17:13;;;;;;;4.07;1.38;;;;;;;;;;5031755;28;20051;-52
2022/07/31 11:19:40;;;;;;;4.13;1.23;;;;;;;;;;5028870;28;20044;-50
2022/07/31 11:22:09;;;;;;;5.30;1.30;;;;;;;;;;5041717;28;20041;-49
2022/07/31 11:24:35;;;;;;;6.07;1.52;;;;;;;;;;5027199;28;20143;-52
2022/07/31 11:27:03;;;;;;;5.43;1.30;;;;;;;;;;5029082;28;20045;-51
2022/07/31 11:29:31;;;;;;;4.82;1.20;;;;;;;;;;5025023;28;20099;-51
2022/07/31 11:31:59;;;;;;;3.67;1.00;;;;;;;;;;5024356;28;20040;-52
2022/07/31 11:34:26;;;;;;;4.40;1.50;;;;;;;;;;5031912;28;20113;-51
2022/07/31 11:36:52;;;;;;;3.97;1.35;;;;;;;;;;5030250;28;20128;-50
2022/07/31 11:39:22;;;;;;;4.53;1.00;;;;;;;;;;5034467;28;20037;-48
2022/07/31 11:41:49;;;;;;;3.27;1.00;;;;;;;;;;4677808;28;10000016;-51
2022/07/31 11:44:21;;;;;;;3.58;1.00;;;;;;;;;;4685702;28;10000378;-49
2022/07/31 11:46:50;;;;;;;4.32;1.48;;;;;;;;;;5038293;28;20654;-52
2022/07/31 11:49:20;;;;;;;7.23;1.67;;;;;;;;;;5017652;28;20060;-50
2022/07/31 11:51:47;;;;;;;5.20;1.65;;;;;;;;;;5037709;28;20051;-51
2022/07/31 11:54:21;;;;;;;3.50;1.15;;;;;;;;;;5029147;28;20044;-52
2022/07/31 11:56:51;;;;;;;4.30;1.20;;;;;;;;;;5030708;28;20067;-52
2022/07/31 11:59:21;;;;;;;4.25;1.70;;;;;;;;;;5026309;28;20052;-53
2022/07/31 12:01:50;;;;;;;4.00;1.40;;;;;;;;;;5034373;28;20835;-51
2022/07/31 12:04:17;;;;;;;4.85;1.33;;;;;;;;;;5050009;28;20059;-53
2022/07/31 12:06:44;;;;;;;3.65;1.50;;;;;;;;;;5022728;28;21425;-54
2022/07/31 12:09:11;;;;;;;6.07;1.70;;;;;;;;;;5039639;28;20041;-51
2022/07/31 12:11:37;;;;;;;4.35;1.48;;;;;;;;;;5019665;28;20755;-51
2022/07/31 12:14:04;;;;;;;3.90;1.50;;;;;;;;;;5033832;28;20045;-51
2022/07/31 12:16:38;;;;;;;4.15;1.60;;;;;;;;;;5023734;28;20056;-50
2022/07/31 12:19:06;;;;;;;4.47;1.30;;;;;;;;;;5039269;28;20556;-54
2022/07/31 12:21:33;;;;;;;4.03;1.60;;;;;;;;;;5020212;28;20045;-49
2022/07/31 12:24:00;;;;;;;4.00;1.50;;;;;;;;;;5036832;28;20044;-49
2022/07/31 12:26:27;;;;;;;4.10;1.70;;;;;;;;;;5029203;28;20049;-46
2022/07/31 12:28:57;;;;;;;4.00;1.50;;;;;;;;;;5033393;28;20053;-50
2022/07/31 12:31:23;;;;;;;4.00;1.73;;;;;;;;;;5022300;28;20033;-52
2022/07/31 12:33:50;;;;;;;3.70;1.40;;;;;;;;;;5019493;28;20124;-48
2022/07/31 12:36:18;;;;;;;4.32;1.80;;;;;;;;;;5033968;28;20041;-52
2022/07/31 12:38:45;;;;;;;4.40;1.80;;;;;;;;;;5027517;28;20055;-48
2022/07/31 12:41:11;;;;;;;4.88;1.60;;;;;;;;;;5036759;28;20067;-49
2022/07/31 12:43:38;;;;;;;4.97;2.00;;;;;;;;;;5017561;28;20045;-47
2022/07/31 12:46:04;;;;;;;4.95;2.03;;;;;;;;;;5034792;28;20048;-51
2022/07/31 12:48:32;;;;;;;5.22;2.35;;;;;;;;;;5035383;28;20041;-50
2022/07/31 12:50:58;;;;;;;6.30;1.80;;;;;;;;;;5031472;28;20107;-49
2022/07/31 12:53:26;;;;;;;4.95;1.77;;;;;;;;;;5031626;28;20037;-50
2022/07/31 12:55:53;;;;;;;4.13;1.88;;;;;;;;;;5033494;28;20180;-51
2022/07/31 12:58:20;;;;;;;4.28;2.15;;;;;;;;;;5032458;28;20040;-47
2022/07/31 13:00:46;;;;;;;4.00;1.50;;;;;;;;;;5041005;28;20063;-52
2022/07/31 13:03:13;;;;;;;4.33;2.10;;;;;;;;;;5027446;28;20083;-53
2022/07/31 13:05:39;;;;;;;4.85;1.95;;;;;;;;;;5031133;28;20049;-50
2022/07/31 13:08:07;;;;;;;4.20;1.83;;;;;;;;;;5034843;28;20516;-52
2022/07/31 13:10:35;;;;;;;3.90;1.55;;;;;;;;;;5031476;28;20075;-51
2022/07/31 13:13:02;;;;;;;3.97;1.58;;;;;;;;;;5027238;28;20045;-52
2022/07/31 13:15:31;;;;;;;3.60;1.50;;;;;;;;;;5041126;28;20753;-49
2022/07/31 13:18:00;;;;;;;4.13;1.70;;;;;;;;;;5023661;28;20041;-50
2022/07/31 13:20:27;;;;;;;4.15;1.55;;;;;;;;;;5041008;28;20163;-51
2022/07/31 13:22:53;;;;;;;4.93;2.10;;;;;;;;;;5022935;28;20059;-50
2022/07/31 13:25:20;;;;;;;4.40;1.33;;;;;;;;;;5039019;28;20037;-52
2022/07/31 13:27:48;;;;;;;6.87;2.00;;;;;;;;;;5032913;28;20136;-51
2022/07/31 13:30:15;;;;;;;5.60;2.05;;;;;;;;;;5033346;28;20041;-52
2022/07/31 13:32:41;;;;;;;4.78;1.58;;;;;;;;;;5019615;28;20052;-51
2022/07/31 13:35:08;;;;;;;4.15;1.40;;;;;;;;;;5028754;28;20045;-53
2022/07/31 13:37:34;;;;;;;4.85;1.90;;;;;;;;;;5027845;28;20040;-50
2022/07/31 13:40:01;;;;;;;4.83;1.80;;;;;;;;;;5034257;28;20319;-50
2022/07/31 13:42:27;;;;;;;6.70;2.33;;;;;;;;;;5018283;28;20044;-50
2022/07/31 13:44:56;;;;;;;4.57;2.08;;;;;;;;;;5025574;28;20088;-50
2022/07/31 13:47:22;;;;;;;4.28;1.48;;;;;;;;;;5025582;28;20049;-51
2022/07/31 13:49:49;;;;;;;4.28;1.60;;;;;;;;;;5038993;28;20049;-48
2022/07/31 13:52:15;;;;;;;4.87;2.07;;;;;;;;;;5025756;28;20045;-50
2022/07/31 13:54:42;;;;;;;3.80;1.65;;;;;;;;;;5039221;28;20044;-50
2022/07/31 13:57:08;;;;;;;4.28;1.95;;;;;;;;;;5032426;28;20037;-52
2022/07/31 13:59:35;;;;;;;5.25;1.92;;;;;;;;;;5037780;28;20055;-49
2022/07/31 14:02:03;;;;;;;4.00;1.35;;;;;;;;;;5036746;28;20056;-51
2022/07/31 14:04:29;;;;;;;4.17;1.67;;;;;;;;;;5023780;28;20033;-51
2022/07/31 14:06:56;;;;;;;4.60;1.85;;;;;;;;;;5037112;28;20410;-51
2022/07/31 14:09:23;;;;;;;6.03;1.95;;;;;;;;;;5033024;28;20041;-53
2022/07/31 14:11:49;;;;;;;5.25;2.15;;;;;;;;;;5039262;28;20040;-52
2022/07/31 14:14:16;;;;;;;5.88;2.40;;;;;;;;;;5033173;28;20061;-51
2022/07/31 14:16:43;;;;;;;4.60;1.87;;;;;;;;;;5032406;28;20041;-52
2022/07/31 14:19:10;;;;;;;4.20;1.88;;;;;;;;;;5032804;28;20063;-49
2022/07/31 14:21:37;;;;;;;4.65;1.42;;;;;;;;;;5030044;28;21015;-53
2022/07/31 14:24:04;;;;;;;4.30;1.80;;;;;;;;;;5033334;28;20033;-49
2022/07/31 14:26:30;;;;;;;4.43;2.10;;;;;;;;;;5030301;28;20044;-49
2022/07/31 14:28:57;;;;;;;4.20;2.00;;;;;;;;;;5035388;28;20106;-52
2022/07/31 14:31:24;;;;;;;5.18;2.22;;;;;;;;;;5026447;28;20654;-54
2022/07/31 14:33:51;;;;;;;4.38;2.03;;;;;;;;;;5028982;28;20040;-52
2022/07/31 14:36:18;;;;;;;5.50;2.35;;;;;;;;;;5023404;28;20039;-48
2022/07/31 14:38:45;;;;;;;5.43;2.63;;;;;;;;;;5031696;28;20037;-53
2022/07/31 14:41:11;;;;;;;5.60;2.60;;;;;;;;;;5025310;28;20052;-50
2022/07/31 14:43:38;;;;;;;6.03;2.50;;;;;;;;;;5025771;28;20046;-51